الصفحة الرئيسية
METAR-TAF:

METAR-TAF

مطار :

مطار جومو كينياتا

نيروبي, كينيا

دائرة عرض: 01-19S, خط طول: 036-55E, ارتفاع: 1624 متر

مراقبة الطقس الحالي

تاريخ ووقت الإصدار 6ساعات و 54 دقيقة قبل الساعة 16:30UTC
ريح 13 عقدة من الشرق
درجة الحرارة 25°درجة مئوية
الرطوبة 39%
ضغط 1018 hPa
الرؤية 10 كم أو أكثر
غيوم قليلة على ارتفاع 1800 قدم

METAR: HKJK 231630Z 08013KT 9999 FEW018 25/10 Q1018 NOSIG

زمن: 02:24 (23:24 UTC)

توقعات

تاريخ ووقت الإصدار 6ساعات و 24 دقيقة قبل الساعة 17:00UTC
التوقعات صالحة من23 الساعة 18 UTC إلى 24 الساعة 24 UTC
ريح 10 عقدة من الشرق/الشمال الشرقي
الرؤية 10 كم أو أكثر
غيوم قليلة على ارتفاع 2300 قدم
أصبح
من 23 الساعة 18 UTC إلى 23 الساعة 21 UTC
الرؤية 10 كم أو أكثر
الغيوم لا تقل 1500 م ولا وجود لمزنة ركامية السحاب الأسود
أصبح
من 24 الساعة 04 UTC إلى 24 الساعة 07 UTC
الرؤية 10 كم أو أكثر
غيوم متفرقة على ارتفاع 2600 قدم

TAF: HKJK 231700Z 2318/2424 06010KT 9999 FEW023 BECMG 2318/2321 CAVOK BECMG 2404/2407 9999 SCT026

أرصاد الطقس والتوقعات من أكثر من 4000 مطار (تقارير الطقس للمطار METAR والتنبؤ بالطقس بالمطارTAF).

المحطات المتاحة هي النقط الصفراء والحمراء على الخريطة.

حرك المؤشر فوق النقطة لمعرفة اسم المحطة.

ثم انقر لمعرفة أرصاد وتوقعات الطقس.

لتغيير الخارطة: اضغط على الأزرار الخضراء مع رمز الصليب الأسود للتكبير. على الزر الأخضر مع شرطة للتصغير، أو على الأسهم الخضراء للخرائط المجاورة.


METAR-TAF: